sensor_id;sensor_type;location;lat;lon;timestamp;P1;durP1;ratioP1;P2;durP2;ratioP2
80576;SDS011;69937;52.420;10.538;2023-08-01T00:01:33;2.75;;;1.95;;
80576;SDS011;69937;52.420;10.538;2023-08-01T00:06:34;1.20;;;0.85;;
80576;SDS011;69937;52.420;10.538;2023-08-01T00:11:34;1.95;;;0.95;;
80576;SDS011;69937;52.420;10.538;2023-08-01T00:16:35;7.50;;;2.53;;
80576;SDS011;69937;52.420;10.538;2023-08-01T00:21:36;1.50;;;0.75;;
80576;SDS011;69937;52.420;10.538;2023-08-01T00:26:36;2.65;;;0.82;;
80576;SDS011;69937;52.420;10.538;2023-08-01T00:31:37;2.38;;;1.02;;
80576;SDS011;69937;52.420;10.538;2023-08-01T00:36:37;2.67;;;0.90;;
80576;SDS011;69937;52.420;10.538;2023-08-01T00:41:38;1.55;;;1.05;;
80576;SDS011;69937;52.420;10.538;2023-08-01T00:46:38;1.42;;;0.93;;
80576;SDS011;69937;52.420;10.538;2023-08-01T00:51:39;2.90;;;0.88;;
80576;SDS011;69937;52.420;10.538;2023-08-01T00:56:40;2.25;;;1.10;;
80576;SDS011;69937;52.420;10.538;2023-08-01T01:01:42;1.40;;;1.02;;
80576;SDS011;69937;52.420;10.538;2023-08-01T01:06:57;1.98;;;1.42;;
80576;SDS011;69937;52.420;10.538;2023-08-01T01:12:01;2.75;;;0.93;;
80576;SDS011;69937;52.420;10.538;2023-08-01T01:17:04;2.13;;;1.10;;
80576;SDS011;69937;52.420;10.538;2023-08-01T01:22:17;2.65;;;1.30;;
80576;SDS011;69937;52.420;10.538;2023-08-01T01:27:19;1.65;;;0.95;;
80576;SDS011;69937;52.420;10.538;2023-08-01T01:32:20;2.42;;;1.13;;
80576;SDS011;69937;52.420;10.538;2023-08-01T01:37:21;1.85;;;0.82;;
80576;SDS011;69937;52.420;10.538;2023-08-01T01:42:22;1.80;;;1.08;;
80576;SDS011;69937;52.420;10.538;2023-08-01T01:47:22;2.00;;;1.08;;
80576;SDS011;69937;52.420;10.538;2023-08-01T01:52:23;3.03;;;0.98;;
80576;SDS011;69937;52.420;10.538;2023-08-01T01:57:23;3.08;;;1.02;;
80576;SDS011;69937;52.420;10.538;2023-08-01T02:02:24;2.85;;;1.13;;
80576;SDS011;69937;52.420;10.538;2023-08-01T02:07:24;1.55;;;1.02;;
80576;SDS011;69937;52.420;10.538;2023-08-01T02:12:25;1.75;;;1.10;;
80576;SDS011;69937;52.420;10.538;2023-08-01T02:17:25;1.58;;;1.05;;
80576;SDS011;69937;52.420;10.538;2023-08-01T02:22:26;2.17;;;1.00;;
80576;SDS011;69937;52.420;10.538;2023-08-01T02:27:27;5.78;;;0.93;;
80576;SDS011;69937;52.420;10.538;2023-08-01T02:32:27;2.80;;;1.33;;
80576;SDS011;69937;52.420;10.538;2023-08-01T02:37:28;2.67;;;0.98;;
80576;SDS011;69937;52.420;10.538;2023-08-01T02:42:28;2.92;;;1.10;;
80576;SDS011;69937;52.420;10.538;2023-08-01T02:47:29;1.70;;;1.08;;
80576;SDS011;69937;52.420;10.538;2023-08-01T02:52:29;3.20;;;0.90;;
80576;SDS011;69937;52.420;10.538;2023-08-01T02:57:30;1.48;;;0.82;;
80576;SDS011;69937;52.420;10.538;2023-08-01T03:02:30;1.02;;;0.50;;
80576;SDS011;69937;52.420;10.538;2023-08-01T03:07:31;2.65;;;1.05;;
80576;SDS011;69937;52.420;10.538;2023-08-01T03:12:32;1.02;;;0.60;;
80576;SDS011;69937;52.420;10.538;2023-08-01T03:17:33;1.20;;;0.60;;
80576;SDS011;69937;52.420;10.538;2023-08-01T03:22:33;1.63;;;0.82;;
80576;SDS011;69937;52.420;10.538;2023-08-01T03:27:34;1.92;;;0.77;;
80576;SDS011;69937;52.420;10.538;2023-08-01T03:32:35;1.70;;;1.13;;
80576;SDS011;69937;52.420;10.538;2023-08-01T03:37:37;3.15;;;1.13;;
80576;SDS011;69937;52.420;10.538;2023-08-01T03:42:38;1.98;;;1.10;;
80576;SDS011;69937;52.420;10.538;2023-08-01T03:47:38;1.50;;;0.82;;
80576;SDS011;69937;52.420;10.538;2023-08-01T03:52:39;1.40;;;0.82;;
80576;SDS011;69937;52.420;10.538;2023-08-01T03:57:40;2.15;;;0.80;;
80576;SDS011;69937;52.420;10.538;2023-08-01T04:02:40;1.58;;;0.75;;
80576;SDS011;69937;52.420;10.538;2023-08-01T04:07:41;1.65;;;0.75;;
80576;SDS011;69937;52.420;10.538;2023-08-01T04:12:42;1.38;;;0.90;;
80576;SDS011;69937;52.420;10.538;2023-08-01T04:17:43;3.38;;;0.88;;
80576;SDS011;69937;52.420;10.538;2023-08-01T04:22:43;2.63;;;0.98;;
80576;SDS011;69937;52.420;10.538;2023-08-01T04:27:44;1.15;;;0.70;;
80576;SDS011;69937;52.420;10.538;2023-08-01T04:32:44;1.48;;;0.65;;
80576;SDS011;69937;52.420;10.538;2023-08-01T04:37:45;1.13;;;0.70;;
80576;SDS011;69937;52.420;10.538;2023-08-01T04:42:45;0.70;;;0.43;;
80576;SDS011;69937;52.420;10.538;2023-08-01T04:47:46;2.00;;;0.90;;
80576;SDS011;69937;52.420;10.538;2023-08-01T04:52:46;1.60;;;0.65;;
80576;SDS011;69937;52.420;10.538;2023-08-01T04:57:47;4.38;;;0.50;;
80576;SDS011;69937;52.420;10.538;2023-08-01T05:02:47;0.60;;;0.38;;
80576;SDS011;69937;52.420;10.538;2023-08-01T05:07:48;0.47;;;0.32;;
80576;SDS011;69937;52.420;10.538;2023-08-01T05:12:48;2.03;;;0.95;;
80576;SDS011;69937;52.420;10.538;2023-08-01T05:17:49;2.40;;;0.40;;
80576;SDS011;69937;52.420;10.538;2023-08-01T05:22:49;0.70;;;0.43;;
80576;SDS011;69937;52.420;10.538;2023-08-01T05:27:50;1.23;;;0.40;;
80576;SDS011;69937;52.420;10.538;2023-08-01T05:32:50;0.93;;;0.60;;
80576;SDS011;69937;52.420;10.538;2023-08-01T05:37:51;2.17;;;0.55;;
80576;SDS011;69937;52.420;10.538;2023-08-01T05:42:51;0.60;;;0.40;;
80576;SDS011;69937;52.420;10.538;2023-08-01T05:47:52;1.42;;;0.40;;
80576;SDS011;69937;52.420;10.538;2023-08-01T05:52:53;2.30;;;0.60;;
80576;SDS011;69937;52.420;10.538;2023-08-01T05:57:53;0.55;;;0.38;;
80576;SDS011;69937;52.420;10.538;2023-08-01T06:02:54;0.63;;;0.43;;
80576;SDS011;69937;52.420;10.538;2023-08-01T06:07:54;0.85;;;0.40;;
80576;SDS011;69937;52.420;10.538;2023-08-01T06:12:55;1.20;;;0.60;;
80576;SDS011;69937;52.420;10.538;2023-08-01T06:17:55;0.93;;;0.57;;
80576;SDS011;69937;52.420;10.538;2023-08-01T06:22:56;1.20;;;0.60;;
80576;SDS011;69937;52.420;10.538;2023-08-01T06:27:56;1.08;;;0.60;;
80576;SDS011;69937;52.420;10.538;2023-08-01T06:32:57;4.20;;;0.50;;
80576;SDS011;69937;52.420;10.538;2023-08-01T06:37:57;1.63;;;0.63;;
80576;SDS011;69937;52.420;10.538;2023-08-01T06:42:58;1.40;;;0.60;;
80576;SDS011;69937;52.420;10.538;2023-08-01T06:47:58;1.35;;;0.70;;
80576;SDS011;69937;52.420;10.538;2023-08-01T06:52:59;3.45;;;0.90;;
80576;SDS011;69937;52.420;10.538;2023-08-01T06:58:00;2.35;;;0.80;;
80576;SDS011;69937;52.420;10.538;2023-08-01T07:03:01;2.03;;;0.88;;
80576;SDS011;69937;52.420;10.538;2023-08-01T07:08:02;2.00;;;1.10;;
80576;SDS011;69937;52.420;10.538;2023-08-01T07:13:03;2.90;;;0.80;;
80576;SDS011;69937;52.420;10.538;2023-08-01T07:18:04;1.88;;;0.90;;
80576;SDS011;69937;52.420;10.538;2023-08-01T07:23:04;2.55;;;0.90;;
80576;SDS011;69937;52.420;10.538;2023-08-01T07:28:05;1.85;;;0.90;;
80576;SDS011;69937;52.420;10.538;2023-08-01T07:33:05;3.20;;;1.10;;
80576;SDS011;69937;52.420;10.538;2023-08-01T07:38:06;2.92;;;1.05;;
80576;SDS011;69937;52.420;10.538;2023-08-01T07:43:06;3.50;;;1.30;;
80576;SDS011;69937;52.420;10.538;2023-08-01T07:48:07;2.20;;;1.30;;
80576;SDS011;69937;52.420;10.538;2023-08-01T07:53:08;3.88;;;1.45;;
80576;SDS011;69937;52.420;10.538;2023-08-01T07:58:08;3.67;;;1.60;;
80576;SDS011;69937;52.420;10.538;2023-08-01T08:03:09;2.92;;;1.63;;
80576;SDS011;69937;52.420;10.538;2023-08-01T08:08:09;6.53;;;1.88;;
80576;SDS011;69937;52.420;10.538;2023-08-01T08:13:10;5.18;;;2.28;;
80576;SDS011;69937;52.420;10.538;2023-08-01T08:18:10;10.15;;;2.90;;
80576;SDS011;69937;52.420;10.538;2023-08-01T08:23:11;6.85;;;2.92;;
80576;SDS011;69937;52.420;10.538;2023-08-01T08:28:15;5.38;;;2.63;;
80576;SDS011;69937;52.420;10.538;2023-08-01T08:33:27;6.63;;;3.05;;
80576;SDS011;69937;52.420;10.538;2023-08-01T08:38:28;6.28;;;2.60;;
80576;SDS011;69937;52.420;10.538;2023-08-01T08:43:29;11.18;;;3.58;;
80576;SDS011;69937;52.420;10.538;2023-08-01T08:48:31;5.18;;;3.22;;
80576;SDS011;69937;52.420;10.538;2023-08-01T08:53:33;8.68;;;3.17;;
80576;SDS011;69937;52.420;10.538;2023-08-01T08:58:36;8.07;;;3.20;;
80576;SDS011;69937;52.420;10.538;2023-08-01T09:03:40;4.25;;;2.67;;
80576;SDS011;69937;52.420;10.538;2023-08-01T09:08:56;7.97;;;3.17;;
80576;SDS011;69937;52.420;10.538;2023-08-01T09:14:14;6.80;;;3.17;;
80576;SDS011;69937;52.420;10.538;2023-08-01T09:19:19;5.13;;;2.53;;
80576;SDS011;69937;52.420;10.538;2023-08-01T09:24:21;10.25;;;3.08;;
80576;SDS011;69937;52.420;10.538;2023-08-01T09:29:21;6.20;;;2.67;;
80576;SDS011;69937;52.420;10.538;2023-08-01T09:34:22;5.32;;;2.33;;
80576;SDS011;69937;52.420;10.538;2023-08-01T09:39:25;7.05;;;2.22;;
80576;SDS011;69937;52.420;10.538;2023-08-01T09:44:27;4.63;;;1.85;;
80576;SDS011;69937;52.420;10.538;2023-08-01T09:49:28;6.53;;;1.98;;
80576;SDS011;69937;52.420;10.538;2023-08-01T09:54:29;3.95;;;1.83;;
80576;SDS011;69937;52.420;10.538;2023-08-01T09:59:30;4.97;;;1.55;;
80576;SDS011;69937;52.420;10.538;2023-08-01T10:04:31;2.78;;;1.05;;
80576;SDS011;69937;52.420;10.538;2023-08-01T10:09:34;2.42;;;1.00;;
80576;SDS011;69937;52.420;10.538;2023-08-01T10:14:36;3.08;;;1.20;;
80576;SDS011;69937;52.420;10.538;2023-08-01T10:19:38;4.32;;;1.02;;
80576;SDS011;69937;52.420;10.538;2023-08-01T10:24:40;2.83;;;1.27;;
80576;SDS011;69937;52.420;10.538;2023-08-01T10:29:42;5.30;;;1.20;;
80576;SDS011;69937;52.420;10.538;2023-08-01T10:34:50;3.17;;;1.20;;
80576;SDS011;69937;52.420;10.538;2023-08-01T10:39:58;2.75;;;1.08;;
80576;SDS011;69937;52.420;10.538;2023-08-01T10:44:59;3.42;;;0.98;;
80576;SDS011;69937;52.420;10.538;2023-08-01T10:50:00;3.85;;;1.08;;
80576;SDS011;69937;52.420;10.538;2023-08-01T10:55:01;3.72;;;1.13;;
80576;SDS011;69937;52.420;10.538;2023-08-01T11:00:03;2.70;;;0.90;;
80576;SDS011;69937;52.420;10.538;2023-08-01T11:05:09;3.50;;;0.82;;
80576;SDS011;69937;52.420;10.538;2023-08-01T11:10:12;3.58;;;0.90;;
80576;SDS011;69937;52.420;10.538;2023-08-01T11:15:14;5.65;;;0.90;;
80576;SDS011;69937;52.420;10.538;2023-08-01T11:20:15;3.28;;;0.85;;
80576;SDS011;69937;52.420;10.538;2023-08-01T11:25:17;4.88;;;1.10;;
80576;SDS011;69937;52.420;10.538;2023-08-01T11:30:17;2.15;;;0.75;;
80576;SDS011;69937;52.420;10.538;2023-08-01T11:35:18;4.75;;;0.80;;
80576;SDS011;69937;52.420;10.538;2023-08-01T11:40:19;3.45;;;1.15;;
80576;SDS011;69937;52.420;10.538;2023-08-01T11:45:20;5.53;;;1.00;;
80576;SDS011;69937;52.420;10.538;2023-08-01T11:50:21;5.65;;;0.80;;
80576;SDS011;69937;52.420;10.538;2023-08-01T11:55:25;3.65;;;1.00;;
80576;SDS011;69937;52.420;10.538;2023-08-01T12:00:27;1.13;;;0.30;;
80576;SDS011;69937;52.420;10.538;2023-08-01T12:05:28;1.27;;;0.30;;
80576;SDS011;69937;52.420;10.538;2023-08-01T12:10:36;1.48;;;0.47;;
80576;SDS011;69937;52.420;10.538;2023-08-01T12:15:38;3.85;;;0.50;;
80576;SDS011;69937;52.420;10.538;2023-08-01T12:20:38;2.47;;;0.50;;
80576;SDS011;69937;52.420;10.538;2023-08-01T12:25:39;2.67;;;0.52;;
80576;SDS011;69937;52.420;10.538;2023-08-01T12:30:40;1.95;;;0.70;;
80576;SDS011;69937;52.420;10.538;2023-08-01T12:35:41;2.65;;;0.88;;
80576;SDS011;69937;52.420;10.538;2023-08-01T12:40:42;5.00;;;0.90;;
80576;SDS011;69937;52.420;10.538;2023-08-01T12:45:42;3.80;;;1.63;;
80576;SDS011;69937;52.420;10.538;2023-08-01T12:50:44;6.40;;;0.98;;
80576;SDS011;69937;52.420;10.538;2023-08-01T12:55:49;3.67;;;0.82;;
80576;SDS011;69937;52.420;10.538;2023-08-01T13:00:51;3.40;;;0.90;;
80576;SDS011;69937;52.420;10.538;2023-08-01T13:05:52;2.35;;;0.80;;
80576;SDS011;69937;52.420;10.538;2023-08-01T13:10:52;1.83;;;0.57;;
80576;SDS011;69937;52.420;10.538;2023-08-01T13:15:55;2.40;;;0.60;;
80576;SDS011;69937;52.420;10.538;2023-08-01T13:20:57;2.88;;;0.82;;
80576;SDS011;69937;52.420;10.538;2023-08-01T13:25:59;3.40;;;0.77;;
80576;SDS011;69937;52.420;10.538;2023-08-01T13:31:02;2.60;;;0.60;;
80576;SDS011;69937;52.420;10.538;2023-08-01T13:36:11;3.33;;;0.50;;
80576;SDS011;69937;52.420;10.538;2023-08-01T13:41:12;6.80;;;0.68;;
80576;SDS011;69937;52.420;10.538;2023-08-01T13:46:14;4.75;;;0.45;;
80576;SDS011;69937;52.420;10.538;2023-08-01T13:51:16;2.25;;;0.75;;
80576;SDS011;69937;52.420;10.538;2023-08-01T13:56:17;2.65;;;0.75;;
80576;SDS011;69937;52.420;10.538;2023-08-01T14:01:17;3.28;;;1.00;;
80576;SDS011;69937;52.420;10.538;2023-08-01T14:06:18;11.68;;;1.00;;
80576;SDS011;69937;52.420;10.538;2023-08-01T14:11:19;2.33;;;0.73;;
80576;SDS011;69937;52.420;10.538;2023-08-01T14:16:20;2.25;;;0.60;;
80576;SDS011;69937;52.420;10.538;2023-08-01T14:21:20;6.32;;;0.85;;
80576;SDS011;69937;52.420;10.538;2023-08-01T14:26:21;1.48;;;0.52;;
80576;SDS011;69937;52.420;10.538;2023-08-01T14:31:21;2.17;;;0.88;;
80576;SDS011;69937;52.420;10.538;2023-08-01T14:36:22;2.00;;;0.60;;
80576;SDS011;69937;52.420;10.538;2023-08-01T14:41:22;1.92;;;0.63;;
80576;SDS011;69937;52.420;10.538;2023-08-01T14:46:23;2.03;;;0.50;;
80576;SDS011;69937;52.420;10.538;2023-08-01T14:51:24;5.55;;;0.80;;
80576;SDS011;69937;52.420;10.538;2023-08-01T14:56:24;2.03;;;0.70;;
80576;SDS011;69937;52.420;10.538;2023-08-01T15:01:25;3.33;;;0.98;;
80576;SDS011;69937;52.420;10.538;2023-08-01T15:06:25;4.68;;;0.55;;
80576;SDS011;69937;52.420;10.538;2023-08-01T15:11:26;3.30;;;0.65;;
80576;SDS011;69937;52.420;10.538;2023-08-01T15:16:26;2.10;;;0.65;;
80576;SDS011;69937;52.420;10.538;2023-08-01T15:21:27;1.80;;;0.60;;
80576;SDS011;69937;52.420;10.538;2023-08-01T15:26:29;2.30;;;0.77;;
80576;SDS011;69937;52.420;10.538;2023-08-01T15:31:29;1.42;;;0.52;;
80576;SDS011;69937;52.420;10.538;2023-08-01T15:36:30;5.53;;;0.70;;
80576;SDS011;69937;52.420;10.538;2023-08-01T15:41:30;1.92;;;0.80;;
80576;SDS011;69937;52.420;10.538;2023-08-01T15:46:32;2.35;;;0.60;;
80576;SDS011;69937;52.420;10.538;2023-08-01T15:51:33;2.50;;;0.52;;
80576;SDS011;69937;52.420;10.538;2023-08-01T15:56:34;2.38;;;0.47;;
80576;SDS011;69937;52.420;10.538;2023-08-01T16:01:35;1.75;;;0.30;;
80576;SDS011;69937;52.420;10.538;2023-08-01T16:06:36;4.95;;;0.35;;
80576;SDS011;69937;52.420;10.538;2023-08-01T16:11:36;2.55;;;0.30;;
80576;SDS011;69937;52.420;10.538;2023-08-01T16:16:37;1.70;;;0.30;;
80576;SDS011;69937;52.420;10.538;2023-08-01T16:21:37;3.58;;;0.45;;
80576;SDS011;69937;52.420;10.538;2023-08-01T16:26:38;2.70;;;0.50;;
80576;SDS011;69937;52.420;10.538;2023-08-01T16:31:39;2.35;;;0.47;;
80576;SDS011;69937;52.420;10.538;2023-08-01T16:36:39;2.85;;;0.40;;
80576;SDS011;69937;52.420;10.538;2023-08-01T16:41:40;2.20;;;0.50;;
80576;SDS011;69937;52.420;10.538;2023-08-01T16:46:40;1.45;;;0.50;;
80576;SDS011;69937;52.420;10.538;2023-08-01T16:51:41;1.60;;;0.47;;
80576;SDS011;69937;52.420;10.538;2023-08-01T16:56:41;2.95;;;1.02;;
80576;SDS011;69937;52.420;10.538;2023-08-01T17:01:42;4.80;;;0.68;;
80576;SDS011;69937;52.420;10.538;2023-08-01T17:06:42;3.35;;;0.80;;
80576;SDS011;69937;52.420;10.538;2023-08-01T17:11:43;2.33;;;0.80;;
80576;SDS011;69937;52.420;10.538;2023-08-01T17:16:44;1.30;;;0.52;;
80576;SDS011;69937;52.420;10.538;2023-08-01T17:21:44;2.60;;;0.80;;
80576;SDS011;69937;52.420;10.538;2023-08-01T17:26:45;1.40;;;0.60;;
80576;SDS011;69937;52.420;10.538;2023-08-01T17:31:45;2.38;;;0.60;;
80576;SDS011;69937;52.420;10.538;2023-08-01T17:36:46;3.15;;;0.80;;
80576;SDS011;69937;52.420;10.538;2023-08-01T17:41:46;4.45;;;0.90;;
80576;SDS011;69937;52.420;10.538;2023-08-01T17:46:47;5.28;;;0.82;;
80576;SDS011;69937;52.420;10.538;2023-08-01T17:51:48;4.25;;;1.10;;
80576;SDS011;69937;52.420;10.538;2023-08-01T17:56:49;2.53;;;0.70;;
80576;SDS011;69937;52.420;10.538;2023-08-01T18:01:50;3.83;;;0.82;;
80576;SDS011;69937;52.420;10.538;2023-08-01T18:06:53;2.15;;;0.93;;
80576;SDS011;69937;52.420;10.538;2023-08-01T18:11:53;3.00;;;1.08;;
80576;SDS011;69937;52.420;10.538;2023-08-01T18:16:54;4.15;;;0.77;;
80576;SDS011;69937;52.420;10.538;2023-08-01T18:21:54;5.20;;;1.08;;
80576;SDS011;69937;52.420;10.538;2023-08-01T18:26:55;4.25;;;1.02;;
80576;SDS011;69937;52.420;10.538;2023-08-01T18:31:55;2.53;;;0.82;;
80576;SDS011;69937;52.420;10.538;2023-08-01T18:36:56;3.33;;;0.95;;
80576;SDS011;69937;52.420;10.538;2023-08-01T18:41:56;3.83;;;0.93;;
80576;SDS011;69937;52.420;10.538;2023-08-01T18:46:57;5.25;;;1.10;;
80576;SDS011;69937;52.420;10.538;2023-08-01T18:51:57;2.90;;;0.73;;
80576;SDS011;69937;52.420;10.538;2023-08-01T18:56:58;3.78;;;0.90;;
80576;SDS011;69937;52.420;10.538;2023-08-01T19:01:58;2.55;;;0.90;;
80576;SDS011;69937;52.420;10.538;2023-08-01T19:07:00;1.67;;;0.63;;
80576;SDS011;69937;52.420;10.538;2023-08-01T19:12:04;2.65;;;0.70;;
80576;SDS011;69937;52.420;10.538;2023-08-01T19:17:06;4.28;;;1.20;;
80576;SDS011;69937;52.420;10.538;2023-08-01T19:22:06;2.42;;;1.00;;
80576;SDS011;69937;52.420;10.538;2023-08-01T19:27:07;2.63;;;0.93;;
80576;SDS011;69937;52.420;10.538;2023-08-01T19:32:08;3.30;;;1.02;;
80576;SDS011;69937;52.420;10.538;2023-08-01T19:37:09;3.22;;;1.30;;
80576;SDS011;69937;52.420;10.538;2023-08-01T19:42:10;3.50;;;1.38;;
80576;SDS011;69937;52.420;10.538;2023-08-01T19:47:12;3.40;;;1.13;;
80576;SDS011;69937;52.420;10.538;2023-08-01T19:52:12;2.67;;;1.30;;
80576;SDS011;69937;52.420;10.538;2023-08-01T19:57:13;4.57;;;1.10;;
80576;SDS011;69937;52.420;10.538;2023-08-01T20:02:14;4.18;;;1.58;;
80576;SDS011;69937;52.420;10.538;2023-08-01T20:07:15;3.53;;;1.45;;
80576;SDS011;69937;52.420;10.538;2023-08-01T20:12:16;3.72;;;1.35;;
80576;SDS011;69937;52.420;10.538;2023-08-01T20:17:16;5.22;;;1.33;;
80576;SDS011;69937;52.420;10.538;2023-08-01T20:22:17;3.58;;;1.35;;
80576;SDS011;69937;52.420;10.538;2023-08-01T20:27:17;3.92;;;1.48;;
80576;SDS011;69937;52.420;10.538;2023-08-01T20:32:19;3.40;;;1.50;;
80576;SDS011;69937;52.420;10.538;2023-08-01T20:37:20;9.80;;;1.80;;
80576;SDS011;69937;52.420;10.538;2023-08-01T20:42:20;5.13;;;1.00;;
80576;SDS011;69937;52.420;10.538;2023-08-01T20:47:21;4.60;;;1.65;;
80576;SDS011;69937;52.420;10.538;2023-08-01T20:52:22;4.40;;;1.33;;
80576;SDS011;69937;52.420;10.538;2023-08-01T20:57:22;5.75;;;1.80;;
80576;SDS011;69937;52.420;10.538;2023-08-01T21:02:23;6.28;;;1.67;;
80576;SDS011;69937;52.420;10.538;2023-08-01T21:07:24;3.70;;;1.27;;
80576;SDS011;69937;52.420;10.538;2023-08-01T21:12:24;5.25;;;1.05;;
80576;SDS011;69937;52.420;10.538;2023-08-01T21:17:25;2.78;;;1.23;;
80576;SDS011;69937;52.420;10.538;2023-08-01T21:22:25;2.63;;;1.13;;
80576;SDS011;69937;52.420;10.538;2023-08-01T21:27:26;3.53;;;1.23;;
80576;SDS011;69937;52.420;10.538;2023-08-01T21:32:26;4.70;;;1.45;;
80576;SDS011;69937;52.420;10.538;2023-08-01T21:37:27;2.20;;;1.35;;
80576;SDS011;69937;52.420;10.538;2023-08-01T21:42:27;4.50;;;0.90;;
80576;SDS011;69937;52.420;10.538;2023-08-01T21:47:28;4.50;;;1.23;;
80576;SDS011;69937;52.420;10.538;2023-08-01T21:52:29;4.68;;;1.50;;
80576;SDS011;69937;52.420;10.538;2023-08-01T21:57:29;4.25;;;1.10;;
80576;SDS011;69937;52.420;10.538;2023-08-01T22:02:30;4.40;;;1.23;;
80576;SDS011;69937;52.420;10.538;2023-08-01T22:07:31;3.45;;;1.23;;
80576;SDS011;69937;52.420;10.538;2023-08-01T22:12:32;2.90;;;1.13;;
80576;SDS011;69937;52.420;10.538;2023-08-01T22:17:32;2.63;;;1.00;;
80576;SDS011;69937;52.420;10.538;2023-08-01T22:22:33;4.40;;;1.00;;
80576;SDS011;69937;52.420;10.538;2023-08-01T22:27:34;3.60;;;1.60;;
80576;SDS011;69937;52.420;10.538;2023-08-01T22:32:34;2.72;;;1.27;;
80576;SDS011;69937;52.420;10.538;2023-08-01T22:37:35;7.10;;;1.45;;
80576;SDS011;69937;52.420;10.538;2023-08-01T22:42:36;4.20;;;1.02;;
80576;SDS011;69937;52.420;10.538;2023-08-01T22:47:37;10.65;;;1.17;;
80576;SDS011;69937;52.420;10.538;2023-08-01T22:52:38;8.05;;;2.13;;
80576;SDS011;69937;52.420;10.538;2023-08-01T22:57:39;4.82;;;1.23;;
80576;SDS011;69937;52.420;10.538;2023-08-01T23:02:40;3.42;;;1.30;;
80576;SDS011;69937;52.420;10.538;2023-08-01T23:07:40;1.67;;;0.98;;
80576;SDS011;69937;52.420;10.538;2023-08-01T23:12:41;3.15;;;1.33;;
80576;SDS011;69937;52.420;10.538;2023-08-01T23:17:42;5.22;;;1.33;;
80576;SDS011;69937;52.420;10.538;2023-08-01T23:22:42;4.63;;;1.33;;
80576;SDS011;69937;52.420;10.538;2023-08-01T23:27:43;3.70;;;1.20;;
80576;SDS011;69937;52.420;10.538;2023-08-01T23:32:43;5.30;;;1.15;;
80576;SDS011;69937;52.420;10.538;2023-08-01T23:37:50;2.45;;;1.02;;
80576;SDS011;69937;52.420;10.538;2023-08-01T23:42:51;4.78;;;1.27;;
80576;SDS011;69937;52.420;10.538;2023-08-01T23:47:52;2.08;;;0.95;;
80576;SDS011;69937;52.420;10.538;2023-08-01T23:52:53;5.38;;;1.30;;
80576;SDS011;69937;52.420;10.538;2023-08-01T23:57:53;3.83;;;1.35;;
